Terminal Aerodrome Forecast
Issued by NWS Jackson, KY

Home | Current Version | Previous Version | Text Only | Print | Product List | Glossary On
Versions: 1 2 3 4 5 6 7 8 9 10 11 12 13 14 15 16 17 18 19 20 21 22 23 24
000
FTUS43 KJKL 080047 CCA
TAFLOZ
TAF COR
KLOZ 080047Z 0800/0824 23009KT P6SM VCTS SCT050CB BKN150
      TEMPO 0800/0802 28010G20KT 3SM -TSRA SCT035 BKN050CB
     FM080400 VRB03KT 6SM BR VCTS SCT025CB BKN050 OVC120
     FM080800 VRB03KT 3SM BR VCSH SCT025 BKN050 OVC100
     FM081300 23005KT 5SM BR VCTS OVC015CB=

USA.gov is the U.S. government's official web portal to all federal, state and local government web resources and services.